createdAt,value
2022-11-02T00:01:37.444Z,101473.53
2022-11-02T00:04:03.803Z,101479.47
2022-11-02T00:06:30.156Z,101472.53
2022-11-02T00:08:56.477Z,101476.41
2022-11-02T00:11:22.801Z,101478.31
2022-11-02T00:13:49.147Z,101482.19
2022-11-02T00:16:17.919Z,101482.44
2022-11-02T00:18:47.429Z,101480.78
2022-11-02T00:21:16.559Z,101486.06
2022-11-02T00:23:43.125Z,101480.41
2022-11-02T00:26:09.729Z,101473.31
2022-11-02T00:28:36.133Z,101483.59
2022-11-02T00:31:03.044Z,101475.28
2022-11-02T00:33:29.437Z,101467.41
2022-11-02T00:35:55.956Z,101462.84
2022-11-02T00:38:22.284Z,101468.19
2022-11-02T00:40:48.611Z,101461.03
2022-11-02T00:43:14.927Z,101466.88
2022-11-02T00:45:41.308Z,101465.75
2022-11-02T00:48:07.791Z,101469.91
2022-11-02T00:50:34.241Z,101476.19
2022-11-02T00:53:00.555Z,101467.81
2022-11-02T00:55:26.892Z,101460.25
2022-11-02T00:57:54.032Z,101472.84
2022-11-02T01:00:20.677Z,101472.66
2022-11-02T01:02:47.145Z,101471.34
2022-11-02T01:05:13.615Z,101469.44
2022-11-02T01:07:40.216Z,101456.38
2022-11-02T01:10:08.553Z,101472.44
2022-11-02T01:12:38.308Z,101529.38
2022-11-02T01:15:06.955Z,101524.22
2022-11-02T01:17:33.467Z,101533.28
2022-11-02T01:19:59.790Z,101527.09
2022-11-02T01:22:26.101Z,101519.22
2022-11-02T01:24:52.461Z,101527.88
2022-11-02T01:27:18.776Z,101519.69
2022-11-02T01:29:45.084Z,101525.69
2022-11-02T01:32:11.384Z,101510.63
2022-11-02T01:34:37.739Z,101520.34
2022-11-02T01:37:04.068Z,101517.25
2022-11-02T01:39:30.411Z,101502.97
2022-11-02T01:41:56.846Z,101533.31
2022-11-02T01:44:32.025Z,101526.34
2022-11-02T01:47:03.317Z,101504.25
2022-11-02T01:49:33.577Z,101511.66
2022-11-02T01:52:07.898Z,101502.50
2022-11-02T01:54:40.149Z,101492.16
2022-11-02T01:57:09.953Z,101496.22
2022-11-02T01:59:46.344Z,101500.03
2022-11-02T02:02:20.323Z,101498.59
2022-11-02T02:04:51.258Z,101489.22
2022-11-02T02:07:18.999Z,101485.88
2022-11-02T02:09:48.752Z,101489.53
2022-11-02T02:12:17.803Z,101484.28
2022-11-02T02:14:44.173Z,101488.19
2022-11-02T02:17:37.431Z,101487.72
2022-11-02T02:20:26.145Z,101491.75
2022-11-02T02:23:07.549Z,101487.84
2022-11-02T02:25:52.649Z,101494.19
2022-11-02T02:28:40.521Z,101484.31
2022-11-02T02:31:30.967Z,101484.78
2022-11-02T02:34:03.352Z,101494.16
2022-11-02T02:36:37.199Z,101495.38
2022-11-02T02:39:15.925Z,101493.47
2022-11-02T02:41:51.458Z,101495.00
2022-11-02T02:44:22.872Z,101498.00
2022-11-02T02:47:00.573Z,101496.09
2022-11-02T02:49:37.855Z,101491.44
2022-11-02T02:52:05.762Z,101505.09
2022-11-02T02:54:46.424Z,101503.22
2022-11-02T02:57:23.336Z,101487.66
2022-11-02T02:59:49.900Z,101482.63
2022-11-02T03:02:21.208Z,101489.84
2022-11-02T03:04:47.874Z,101492.00
2022-11-02T03:07:19.983Z,101498.50
2022-11-02T03:09:50.829Z,101498.25
2022-11-02T03:12:32.257Z,101499.00
2022-11-02T03:15:20.076Z,101497.09
2022-11-02T03:18:17.211Z,101491.94
2022-11-02T03:21:34.373Z,101481.88
2022-11-02T03:24:07.792Z,101483.28
2022-11-02T03:26:39.872Z,101480.31
2022-11-02T03:29:12.695Z,101481.53
2022-11-02T03:31:57.737Z,101479.72
2022-11-02T03:34:48.164Z,101488.75
2022-11-02T03:37:22.198Z,101495.44
2022-11-02T03:39:51.780Z,101497.72
2022-11-02T03:42:23.688Z,101502.06
2022-11-02T03:44:56.779Z,101502.66
2022-11-02T03:47:25.993Z,101511.28
2022-11-02T03:49:55.476Z,101500.03
2022-11-02T03:52:26.260Z,101501.94
2022-11-02T03:55:13.649Z,101505.03
2022-11-02T03:57:49.161Z,101519.69
2022-11-02T04:00:21.953Z,101506.59
2022-11-02T04:02:53.657Z,101524.72
2022-11-02T04:05:21.084Z,101522.06
2022-11-02T04:08:10.810Z,101530.22
2022-11-02T04:10:57.125Z,101530.34
2022-11-02T04:13:42.030Z,101520.97
2022-11-02T04:16:08.354Z,101527.91
2022-11-02T04:18:53.079Z,101542.88
2022-11-02T04:21:19.450Z,101543.63
2022-11-02T04:24:04.113Z,101550.09
2022-11-02T04:26:30.527Z,101550.59
2022-11-02T04:28:56.847Z,101558.25
2022-11-02T04:31:23.160Z,101559.56
2022-11-02T04:33:49.460Z,101568.81
2022-11-02T04:36:15.801Z,101577.44
2022-11-02T04:38:42.195Z,101582.97
2022-11-02T04:41:29.369Z,101585.75
2022-11-02T04:43:56.237Z,101599.06
2022-11-02T04:46:24.288Z,101616.38
2022-11-02T04:48:50.888Z,101613.38
2022-11-02T04:51:17.707Z,101612.41
2022-11-02T04:53:44.053Z,101614.69
2022-11-02T04:56:10.604Z,101614.00
2022-11-02T04:58:37.058Z,101623.59
2022-11-02T05:01:13.582Z,101623.59
2022-11-02T05:03:40.384Z,101625.75
2022-11-02T05:06:06.818Z,101634.88
2022-11-02T05:08:33.254Z,101649.91
2022-11-02T05:10:59.609Z,101659.41
2022-11-02T05:13:26.653Z,101662.28
2022-11-02T05:15:56.888Z,101672.81
2022-11-02T05:18:24.179Z,101669.91
2022-11-02T05:20:55.766Z,101677.09
2022-11-02T05:23:23.053Z,101679.97
2022-11-02T05:26:04.088Z,101684.03
2022-11-02T05:28:32.006Z,101693.72
2022-11-02T05:31:02.718Z,101686.44
2022-11-02T05:33:31.022Z,101690.50
2022-11-02T05:35:59.250Z,101693.84
2022-11-02T05:38:26.745Z,101693.47
2022-11-02T05:40:54.814Z,101702.91
2022-11-02T05:43:21.436Z,101707.22
2022-11-02T05:45:55.974Z,101698.59
2022-11-02T05:48:22.773Z,101708.88
2022-11-02T05:50:49.720Z,101707.03
2022-11-02T05:53:16.460Z,101716.25
2022-11-02T05:55:42.818Z,101714.47
2022-11-02T05:58:09.165Z,101724.69
2022-11-02T06:00:35.485Z,101728.91
2022-11-02T06:03:02.130Z,101722.56
2022-11-02T06:05:28.648Z,101732.88
2022-11-02T06:07:58.861Z,101737.56
2022-11-02T06:10:26.497Z,101741.25
2022-11-02T06:13:00.973Z,101740.91
2022-11-02T06:15:36.467Z,101754.84
2022-11-02T06:18:02.843Z,101755.56
2022-11-02T06:20:29.261Z,101765.88
2022-11-02T06:22:55.601Z,101763.22
2022-11-02T06:25:22.008Z,101767.31
2022-11-02T06:27:58.826Z,101781.91
2022-11-02T06:30:25.308Z,101775.16
2022-11-02T06:32:53.724Z,101782.16
2022-11-02T06:35:22.017Z,101789.09
2022-11-02T06:37:48.721Z,101790.53
2022-11-02T06:40:15.527Z,101798.47
2022-11-02T06:42:45.202Z,101813.63
2022-11-02T06:45:16.946Z,101813.00
2022-11-02T06:47:43.286Z,101829.22
2022-11-02T06:50:09.788Z,101834.47
2022-11-02T06:52:44.157Z,101831.09
2022-11-02T06:55:11.767Z,101843.78
2022-11-02T06:57:39.125Z,101847.38
2022-11-02T07:02:40.188Z,101859.28
2022-11-02T07:05:06.818Z,101873.16
2022-11-02T07:07:33.117Z,101879.88
2022-11-02T07:09:59.498Z,101878.84
2022-11-02T07:12:25.915Z,101892.75
2022-11-02T07:14:52.247Z,101892.34
2022-11-02T07:17:18.933Z,101904.38
2022-11-02T07:19:45.335Z,101915.53
2022-11-02T07:22:11.689Z,101920.19
2022-11-02T07:24:38.009Z,101923.53
2022-11-02T07:27:04.493Z,101927.66
2022-11-02T07:29:30.806Z,101928.16
2022-11-02T07:31:57.122Z,101936.78
2022-11-02T07:34:23.420Z,101939.41
2022-11-02T07:36:49.758Z,101946.94
2022-11-02T07:39:16.154Z,101956.34
2022-11-02T07:41:42.511Z,101937.06
2022-11-02T07:44:09.766Z,101958.41
2022-11-02T07:46:36.098Z,101956.66
2022-11-02T07:49:02.411Z,101964.09
2022-11-02T07:51:30.278Z,101960.75
2022-11-02T07:53:56.615Z,101977.28
2022-11-02T07:56:22.913Z,101970.06
2022-11-02T07:58:49.244Z,101983.41
2022-11-02T08:01:15.601Z,101982.81
2022-11-02T08:03:41.965Z,101983.25
2022-11-02T08:06:08.280Z,101985.91
2022-11-02T08:08:34.602Z,101991.78
2022-11-02T08:11:09.125Z,101998.50
2022-11-02T08:13:37.385Z,102003.13
2022-11-02T08:16:04.108Z,101998.13
2022-11-02T08:18:31.046Z,102006.69
2022-11-02T08:20:59.058Z,102002.09
2022-11-02T08:23:26.387Z,102000.97
2022-11-02T08:25:54.297Z,102001.53
2022-11-02T08:28:23.717Z,102009.38
2022-11-02T08:30:50.257Z,102012.88
2022-11-02T08:33:18.409Z,102022.94
2022-11-02T08:35:46.119Z,102036.38
2022-11-02T08:38:13.509Z,102026.16
2022-11-02T08:40:40.117Z,102031.34
2022-11-02T08:43:11.624Z,102026.75
2022-11-02T08:46:12.692Z,102042.16
2022-11-02T08:48:26.746Z,102036.00
2022-11-02T08:50:53.197Z,102043.94
2022-11-02T08:53:19.530Z,102043.78
2022-11-02T08:55:45.815Z,102037.69
2022-11-02T08:58:12.127Z,102044.09
2022-11-02T09:00:38.750Z,102038.59
2022-11-02T09:03:12.412Z,102047.22
2022-11-02T09:05:40.937Z,102054.03
2022-11-02T09:08:11.389Z,102049.59
2022-11-02T09:10:38.096Z,102053.19
2022-11-02T09:13:07.974Z,102050.97
2022-11-02T09:15:36.726Z,102059.72
2022-11-02T09:18:04.493Z,102065.31
2022-11-02T09:20:31.549Z,102054.78
2022-11-02T09:22:57.870Z,102063.59
2022-11-02T09:25:24.277Z,102070.03
2022-11-02T09:27:55.787Z,102069.50
2022-11-02T09:30:23.113Z,102071.31
2022-11-02T09:33:00.269Z,102075.19
2022-11-02T09:35:28.881Z,102086.66
2022-11-02T09:37:55.555Z,102082.69
2022-11-02T09:40:24.426Z,102086.03
2022-11-02T09:43:05.583Z,102094.16
2022-11-02T09:45:50.321Z,102101.75
2022-11-02T09:48:27.088Z,102093.34
2022-11-02T09:51:17.422Z,102100.59
2022-11-02T09:53:48.554Z,102116.69
2022-11-02T09:56:19.607Z,102105.38
2022-11-02T09:58:53.323Z,102107.81
2022-11-02T10:01:50.166Z,102118.75
2022-11-02T10:04:44.025Z,102109.88
2022-11-02T10:07:32.748Z,102118.69
2022-11-02T10:10:23.292Z,102122.31
2022-11-02T10:13:01.658Z,102119.59
2022-11-02T10:15:41.050Z,102111.78
2022-11-02T10:18:19.973Z,102110.53
2022-11-02T10:20:50.739Z,102117.19
2022-11-02T10:23:24.857Z,102122.94
2022-11-02T10:25:51.789Z,102130.63
2022-11-02T10:28:26.241Z,102123.16
2022-11-02T10:30:54.345Z,102127.22
2022-11-02T10:33:26.606Z,102120.56
2022-11-02T10:36:16.998Z,102135.50
2022-11-02T10:38:52.255Z,102134.66
2022-11-02T10:41:39.920Z,102128.41
2022-11-02T10:44:31.748Z,102136.22
2022-11-02T10:47:04.371Z,102133.47
2022-11-02T10:50:01.425Z,102145.53
2022-11-02T10:52:38.233Z,102141.31
2022-11-02T10:55:08.782Z,102144.81
2022-11-02T10:57:39.496Z,102148.03
2022-11-02T11:00:36.386Z,102155.09
2022-11-02T11:03:12.282Z,102149.41
2022-11-02T11:05:59.343Z,102148.75
2022-11-02T11:08:35.559Z,102144.03
2022-11-02T11:11:14.900Z,102149.75
2022-11-02T11:16:39.631Z,102162.97
2022-11-02T11:22:39.160Z,102171.19
2022-11-02T11:25:28.366Z,102170.72
2022-11-02T11:27:59.228Z,102178.88
2022-11-02T11:30:54.227Z,102163.72
2022-11-02T11:33:19.195Z,102165.06
2022-11-02T11:35:49.993Z,102157.09
2022-11-02T11:38:20.848Z,102165.34
2022-11-02T11:40:53.893Z,102158.03
2022-11-02T11:43:23.525Z,102147.75
2022-11-02T11:46:07.333Z,102161.09
2022-11-02T11:48:44.930Z,102147.66
2022-11-02T11:51:35.229Z,102144.22
2022-11-02T11:54:07.260Z,102145.06
2022-11-02T11:56:33.931Z,102145.59
2022-11-02T11:59:00.262Z,102128.91
2022-11-02T12:01:26.653Z,102149.41
2022-11-02T12:03:57.060Z,102145.16
2022-11-02T12:06:33.811Z,102150.41
2022-11-02T12:09:06.163Z,102147.75
2022-11-02T12:11:55.726Z,102154.28
2022-11-02T12:14:47.745Z,102155.44
2022-11-02T12:17:27.729Z,102147.03
2022-11-02T12:20:19.733Z,102142.97
2022-11-02T12:23:19.675Z,102162.09
2022-11-02T12:25:54.655Z,102148.13
2022-11-02T12:28:45.081Z,102144.44
2022-11-02T12:31:11.336Z,102152.56
2022-11-02T12:33:56.413Z,102140.53
2022-11-02T12:37:09.826Z,102138.78
2022-11-02T12:39:40.522Z,102123.38
2022-11-02T12:42:19.018Z,102123.84
2022-11-02T12:45:04.143Z,102127.94
2022-11-02T12:47:51.641Z,102117.16
2022-11-02T12:50:29.899Z,102125.28
2022-11-02T12:53:28.974Z,102130.00
2022-11-02T12:55:59.802Z,102116.16
2022-11-02T12:58:29.813Z,102120.09
2022-11-02T13:01:13.304Z,102129.09
2022-11-02T13:04:09.532Z,102118.69
2022-11-02T13:06:43.834Z,102139.56
2022-11-02T13:09:25.057Z,102136.91
2022-11-02T13:11:59.025Z,102121.13
2022-11-02T13:14:29.078Z,102126.25
2022-11-02T13:17:24.007Z,102114.22
2022-11-02T13:19:55.906Z,102114.50
2022-11-02T13:22:28.456Z,102112.97
2022-11-02T13:25:05.442Z,102113.38
2022-11-02T13:27:39.250Z,102111.75
2022-11-02T13:30:17.790Z,102097.44
2022-11-02T13:32:56.614Z,102094.09
2022-11-02T13:35:34.861Z,102087.63
2022-11-02T13:38:18.398Z,102086.78
2022-11-02T13:40:47.141Z,102082.53
2022-11-02T13:43:19.608Z,102087.84
2022-11-02T13:46:07.866Z,102085.34
2022-11-02T13:48:52.266Z,102094.06
2022-11-02T13:51:36.433Z,102091.09
2022-11-02T13:54:17.647Z,102087.16
2022-11-02T13:56:45.627Z,102088.53
2022-11-02T13:59:26.113Z,102079.56
2022-11-02T14:01:55.268Z,102084.56
2022-11-02T14:04:22.458Z,102083.03
2022-11-02T14:07:02.656Z,102068.25
2022-11-02T14:09:42.131Z,102083.34
2022-11-02T14:12:17.706Z,102084.16
2022-11-02T14:14:45.313Z,102083.25
2022-11-02T14:17:17.493Z,102085.50
2022-11-02T14:19:43.757Z,102081.97
2022-11-02T14:22:13.542Z,102080.31
2022-11-02T14:24:40.703Z,102078.84
2022-11-02T14:27:12.827Z,102072.00
2022-11-02T14:29:42.254Z,102069.69
2022-11-02T14:32:18.854Z,102066.53
2022-11-02T14:35:09.929Z,102068.75
2022-11-02T14:38:05.635Z,102061.38
2022-11-02T14:40:50.540Z,102059.66
2022-11-02T14:43:56.389Z,102051.84
2022-11-02T14:46:53.330Z,102043.16
2022-11-02T14:49:37.859Z,102045.34
2022-11-02T14:52:24.801Z,102038.59
2022-11-02T14:54:59.218Z,102040.81
2022-11-02T14:57:34.772Z,102035.75
2022-11-02T15:00:18.283Z,102035.22
2022-11-02T15:02:45.627Z,102038.59
2022-11-02T15:05:22.741Z,102036.06
2022-11-02T15:07:54.641Z,102038.03
2022-11-02T15:10:20.900Z,102030.44
2022-11-02T15:12:48.444Z,102031.44
2022-11-02T15:15:31.447Z,102031.75
2022-11-02T15:17:57.692Z,102037.06
2022-11-02T15:20:27.341Z,102027.69
2022-11-02T15:22:58.502Z,102021.84
2022-11-02T15:25:31.220Z,102025.81
2022-11-02T15:28:05.709Z,102018.63
2022-11-02T15:30:33.081Z,102016.69
2022-11-02T15:33:04.254Z,102015.25
2022-11-02T15:35:34.698Z,102019.09
2022-11-02T15:38:17.083Z,102013.81
2022-11-02T15:40:53.435Z,102005.38
2022-11-02T15:43:37.621Z,102011.63
2022-11-02T15:46:32.824Z,102007.69
2022-11-02T15:49:26.452Z,102012.50
2022-11-02T15:52:12.956Z,102009.72
2022-11-02T15:55:18.038Z,102002.59
2022-11-02T15:57:56.897Z,102001.53
2022-11-02T16:00:30.285Z,102005.63
2022-11-02T16:03:05.339Z,102005.63
2022-11-02T16:05:48.250Z,102002.94
2022-11-02T16:08:30.797Z,102001.50
2022-11-02T16:11:17.336Z,101989.41
2022-11-02T16:14:03.258Z,101982.38
2022-11-02T16:16:35.517Z,101979.28
2022-11-02T16:19:02.269Z,101984.31
2022-11-02T16:21:28.578Z,101979.28
2022-11-02T16:23:57.516Z,101986.69
2022-11-02T16:26:27.670Z,101976.13
2022-11-02T16:28:56.864Z,101980.56
2022-11-02T16:31:30.490Z,101971.06
2022-11-02T16:34:13.512Z,101970.59
2022-11-02T16:36:40.062Z,101967.09
2022-11-02T16:39:16.499Z,101955.69
2022-11-02T16:41:48.328Z,101966.25
2022-11-02T16:44:18.477Z,101965.63
2022-11-02T16:46:47.925Z,101966.81
2022-11-02T16:49:18.560Z,101968.84
2022-11-02T16:51:52.713Z,101969.75
2022-11-02T16:54:25.692Z,101968.06
2022-11-02T16:56:53.119Z,101974.72
2022-11-02T16:59:21.275Z,101976.91
2022-11-02T17:01:48.043Z,101972.94
2022-11-02T17:04:14.563Z,101970.06
2022-11-02T17:06:41.982Z,101968.59
2022-11-02T17:09:23.713Z,101972.47
2022-11-02T17:11:51.858Z,101963.88
2022-11-02T17:14:22.931Z,101961.72
2022-11-02T17:17:06.773Z,101977.81
2022-11-02T17:19:38.874Z,101961.47
2022-11-02T17:22:29.133Z,101965.31
2022-11-02T17:25:19.629Z,101957.13
2022-11-02T17:27:46.181Z,101966.25
2022-11-02T17:30:34.392Z,101964.34
2022-11-02T17:33:09.628Z,101965.28
2022-11-02T17:35:36.638Z,101965.50
2022-11-02T17:38:03.612Z,101964.06
2022-11-02T17:40:30.365Z,101956.22
2022-11-02T17:42:59.299Z,101963.00
2022-11-02T17:45:28.282Z,101958.47
2022-11-02T17:47:56.331Z,101950.75
2022-11-02T17:50:24.150Z,101968.28
2022-11-02T17:52:50.889Z,101949.78
2022-11-02T17:55:23.105Z,101944.88
2022-11-02T17:57:50.006Z,101945.72
2022-11-02T18:00:17.706Z,101943.06
2022-11-02T18:02:51.719Z,101941.38
2022-11-02T18:05:24.289Z,101949.06
2022-11-02T18:07:51.375Z,101940.44
2022-11-02T18:10:29.249Z,101932.31
2022-11-02T18:12:55.999Z,101931.69
2022-11-02T18:15:28.220Z,101935.66
2022-11-02T18:17:59.191Z,101929.09
2022-11-02T18:20:27.991Z,101928.00
2022-11-02T18:22:55.619Z,101922.94
2022-11-02T18:25:21.981Z,101924.19
2022-11-02T18:27:48.481Z,101912.13
2022-11-02T18:30:16.648Z,101918.38
2022-11-02T18:32:45.342Z,101922.34
2022-11-02T18:35:17.262Z,101916.00
2022-11-02T18:37:43.896Z,101912.25
2022-11-02T18:40:13.058Z,101914.69
2022-11-02T18:42:40.612Z,101906.13
2022-11-02T18:45:08.145Z,101907.72
2022-11-02T18:47:34.818Z,101903.03
2022-11-02T18:50:01.624Z,101892.78
2022-11-02T18:52:32.194Z,101890.28
2022-11-02T18:55:03.365Z,101881.63
2022-11-02T18:57:29.772Z,101877.69
2022-11-02T18:59:56.162Z,101866.53
2022-11-02T19:02:22.599Z,101869.38
2022-11-02T19:04:48.929Z,101858.09
2022-11-02T19:07:33.809Z,101846.81
2022-11-02T19:10:03.606Z,101843.41
2022-11-02T19:12:30.919Z,101845.69
2022-11-02T19:14:57.288Z,101837.66
2022-11-02T19:17:25.389Z,101826.25
2022-11-02T19:19:52.152Z,101822.78
2022-11-02T19:22:20.867Z,101813.59
2022-11-02T19:24:47.562Z,101811.69
2022-11-02T19:27:15.915Z,101814.09
2022-11-02T19:29:42.379Z,101811.94
2022-11-02T19:32:09.018Z,101813.88
2022-11-02T19:34:36.715Z,101808.13
2022-11-02T19:37:06.949Z,101804.72
2022-11-02T19:39:33.439Z,101804.72
2022-11-02T19:41:59.745Z,101810.97
2022-11-02T19:44:26.447Z,101794.91
2022-11-02T19:46:52.739Z,101795.63
2022-11-02T19:49:19.070Z,101788.28
2022-11-02T19:51:45.402Z,101780.47
2022-11-02T19:54:11.884Z,101779.75
2022-11-02T19:56:38.559Z,101778.06
2022-11-02T19:59:05.833Z,101777.47
2022-11-02T20:01:37.578Z,101785.03
2022-11-02T20:04:04.732Z,101785.78
2022-11-02T20:06:37.307Z,101782.16
2022-11-02T20:09:05.912Z,101792.25
2022-11-02T20:11:32.640Z,101783.13
2022-11-02T20:14:00.915Z,101768.19
2022-11-02T20:16:27.654Z,101763.16
2022-11-02T20:18:54.781Z,101767.84
2022-11-02T20:21:29.890Z,101763.91
2022-11-02T20:23:59.117Z,101761.34
2022-11-02T20:26:31.758Z,101756.19
2022-11-02T20:28:59.841Z,101751.88
2022-11-02T20:31:33.152Z,101753.78
2022-11-02T20:34:00.650Z,101761.22
2022-11-02T20:36:27.378Z,101759.78
2022-11-02T20:38:54.320Z,101765.06
2022-11-02T20:41:22.696Z,101758.59
2022-11-02T20:43:50.399Z,101752.81
2022-11-02T20:49:20.004Z,101760.97
2022-11-02T20:51:49.970Z,101751.16
2022-11-02T20:54:18.219Z,101741.78
2022-11-02T20:56:44.508Z,101743.22
2022-11-02T20:59:10.823Z,101746.72
2022-11-02T21:01:37.189Z,101729.28
2022-11-02T21:04:03.846Z,101734.81
2022-11-02T21:06:30.176Z,101741.53
2022-11-02T21:08:56.797Z,101733.25
2022-11-02T21:11:41.590Z,101722.94
2022-11-02T21:14:08.009Z,101715.97
2022-11-02T21:16:34.308Z,101727.13
2022-11-02T21:19:00.736Z,101723.03
2022-11-02T21:21:27.151Z,101724.25
2022-11-02T21:23:55.351Z,101722.56
2022-11-02T21:26:21.829Z,101724.72
2022-11-02T21:28:48.214Z,101721.34
2022-11-02T21:31:20.328Z,101729.28
2022-11-02T21:33:48.110Z,101734.69
2022-11-02T21:36:16.046Z,101722.69
2022-11-02T21:38:43.751Z,101716.81
2022-11-02T21:41:14.897Z,101708.75
2022-11-02T21:43:41.213Z,101704.31
2022-11-02T21:46:07.611Z,101708.28
2022-11-02T21:48:35.408Z,101707.44
2022-11-02T21:51:10.306Z,101705.75
2022-11-02T21:53:38.719Z,101682.91
2022-11-02T21:56:10.807Z,101683.16
2022-11-02T21:58:42.872Z,101680.66
2022-11-02T22:01:33.829Z,101686.78
2022-11-02T22:04:00.488Z,101681.72
2022-11-02T22:06:30.970Z,101679.81
2022-11-02T22:08:58.918Z,101683.66
2022-11-02T22:11:29.438Z,101673.09
2022-11-02T22:13:57.845Z,101676.69
2022-11-02T22:16:34.735Z,101676.44
2022-11-02T22:19:06.664Z,101669.25
2022-11-02T22:21:42.571Z,101660.59
2022-11-02T22:24:09.652Z,101660.00
2022-11-02T22:26:37.640Z,101653.88
2022-11-02T22:29:04.729Z,101647.16
2022-11-02T22:31:33.691Z,101644.28
2022-11-02T22:34:01.893Z,101634.19
2022-11-02T22:36:30.537Z,101637.78
2022-11-02T22:38:58.412Z,101629.38
2022-11-02T22:41:34.064Z,101637.31
2022-11-02T22:44:22.037Z,101622.41
2022-11-02T22:46:50.485Z,101627.44
2022-11-02T22:49:19.168Z,101617.97
2022-11-02T22:51:49.531Z,101612.47
2022-11-02T22:54:18.247Z,101607.03
2022-11-02T22:56:46.666Z,101602.00
2022-11-02T22:59:13.549Z,101592.16
2022-11-02T23:01:40.744Z,101597.69
2022-11-02T23:04:07.927Z,101590.97
2022-11-02T23:06:34.715Z,101585.06
2022-11-02T23:09:01.364Z,101590.97
2022-11-02T23:11:35.941Z,101590.13
2022-11-02T23:14:11.283Z,101591.22
2022-11-02T23:16:40.557Z,101589.75
2022-11-02T23:19:44.813Z,101588.28
2022-11-02T23:22:30.578Z,101579.66
2022-11-02T23:25:10.851Z,101569.31
2022-11-02T23:27:58.956Z,101571.97
2022-11-02T23:30:46.375Z,101571.78
2022-11-02T23:33:12.773Z,101565.41
2022-11-02T23:35:57.679Z,101566.22
2022-11-02T23:38:24.092Z,101564.78
2022-11-02T23:40:54.669Z,101558.06
2022-11-02T23:43:20.970Z,101554.00
2022-11-02T23:45:47.307Z,101557.59
2022-11-02T23:48:13.664Z,101560.09
2022-11-02T23:50:58.366Z,101554.34
2022-11-02T23:53:43.298Z,101546.91
2022-11-02T23:56:35.267Z,101561.91
2022-11-02T23:59:07.481Z,101557.94
